KSJS

Big Sandy Regional Airport

Prestonsburg, Kentucky, USA
METAR KSJS 140715Z AUTO 16008KT 10SM CLR 09/M02 A3017 RMK AO2 T00901017
Observed Flight Rules
Dec-14 @ 07:15 UTC (27 minutes ago) Visual Flight Rules
Wind Visibility Clouds
160° at 8 knots 10 miles
  • Clear skies
Temperatures Readings
Current 9°C / 48°F
Dewpoint -2°C / 28°F
Humidity 46%
Altimeter 30.17" Hg
Pressure 1022 hPa
Elevation 372
METAR KSJS 140715Z AUTO 16008KT 10SM CLR 09/M02 A3017 RMK AO2 T00901017
Observed Flight Rules
Dec-14 @ 07:15 UTC
(27 minutes ago)
VFR
Wind Visibility
160° at 8 knots 10 miles
Clouds
  • Clear skies
Temperature Dewpoint
9°C / 48°F -2°C / 28°F
Humidity Altimeter Pressure
46% 30.17" Hg 1022 hPa